sensor_id;sensor_type;location;lat;lon;timestamp;temperature;humidity
7934;DHT22;4012;48.896;9.192;2022-09-03T00:01:24;18.10;99.90
7934;DHT22;4012;48.896;9.192;2022-09-03T00:03:55;18.20;99.90
7934;DHT22;4012;48.896;9.192;2022-09-03T00:06:30;18.20;99.90
7934;DHT22;4012;48.896;9.192;2022-09-03T00:09:05;18.10;99.90
7934;DHT22;4012;48.896;9.192;2022-09-03T00:15:34;18.10;99.90
7934;DHT22;4012;48.896;9.192;2022-09-03T00:18:01;18.10;99.90
7934;DHT22;4012;48.896;9.192;2022-09-03T00:20:39;18.10;99.90
7934;DHT22;4012;48.896;9.192;2022-09-03T00:23:09;18.10;99.90
7934;DHT22;4012;48.896;9.192;2022-09-03T00:28:29;18.00;99.90
7934;DHT22;4012;48.896;9.192;2022-09-03T00:31:28;18.00;99.90
7934;DHT22;4012;48.896;9.192;2022-09-03T00:34:01;18.00;99.90
7934;DHT22;4012;48.896;9.192;2022-09-03T00:36:38;18.00;99.90
7934;DHT22;4012;48.896;9.192;2022-09-03T00:39:10;18.10;99.90
7934;DHT22;4012;48.896;9.192;2022-09-03T00:50:08;18.00;99.90
7934;DHT22;4012;48.896;9.192;2022-09-03T00:53:07;18.00;99.90
7934;DHT22;4012;48.896;9.192;2022-09-03T00:55:56;18.00;99.90
7934;DHT22;4012;48.896;9.192;2022-09-03T00:58:39;18.00;99.90
7934;DHT22;4012;48.896;9.192;2022-09-03T01:01:18;17.90;99.90
7934;DHT22;4012;48.896;9.192;2022-09-03T01:06:29;18.00;99.90
7934;DHT22;4012;48.896;9.192;2022-09-03T01:28:34;18.10;99.90
7934;DHT22;4012;48.896;9.192;2022-09-03T01:31:17;18.20;99.90
7934;DHT22;4012;48.896;9.192;2022-09-03T01:42:34;18.10;99.90
7934;DHT22;4012;48.896;9.192;2022-09-03T01:52:58;18.10;99.90
7934;DHT22;4012;48.896;9.192;2022-09-03T01:58:26;18.20;99.90
7934;DHT22;4012;48.896;9.192;2022-09-03T02:00:59;18.10;99.90
7934;DHT22;4012;48.896;9.192;2022-09-03T02:03:33;18.20;99.90
7934;DHT22;4012;48.896;9.192;2022-09-03T02:06:00;18.10;99.90
7934;DHT22;4012;48.896;9.192;2022-09-03T02:08:25;18.00;99.90
7934;DHT22;4012;48.896;9.192;2022-09-03T02:10:54;18.10;99.90
7934;DHT22;4012;48.896;9.192;2022-09-03T02:13:33;18.10;99.90
7934;DHT22;4012;48.896;9.192;2022-09-03T02:16:04;18.10;99.90
7934;DHT22;4012;48.896;9.192;2022-09-03T02:18:43;18.10;99.90
7934;DHT22;4012;48.896;9.192;2022-09-03T02:21:13;18.10;99.90
7934;DHT22;4012;48.896;9.192;2022-09-03T02:23:41;18.20;99.90
7934;DHT22;4012;48.896;9.192;2022-09-03T02:26:09;18.20;99.90
7934;DHT22;4012;48.896;9.192;2022-09-03T02:28:36;18.20;99.90
7934;DHT22;4012;48.896;9.192;2022-09-03T02:31:02;18.20;99.90
7934;DHT22;4012;48.896;9.192;2022-09-03T02:33:30;18.20;99.90
7934;DHT22;4012;48.896;9.192;2022-09-03T02:35:56;18.20;99.90
7934;DHT22;4012;48.896;9.192;2022-09-03T02:38:24;18.20;99.90
7934;DHT22;4012;48.896;9.192;2022-09-03T02:40:50;18.10;99.90
7934;DHT22;4012;48.896;9.192;2022-09-03T02:45:53;18.10;99.90
7934;DHT22;4012;48.896;9.192;2022-09-03T02:48:22;18.20;99.90
7934;DHT22;4012;48.896;9.192;2022-09-03T02:50:48;18.10;99.90
7934;DHT22;4012;48.896;9.192;2022-09-03T02:53:15;18.00;99.90
7934;DHT22;4012;48.896;9.192;2022-09-03T02:55:40;18.00;99.90
7934;DHT22;4012;48.896;9.192;2022-09-03T02:58:06;18.00;99.90
7934;DHT22;4012;48.896;9.192;2022-09-03T03:00:34;18.00;99.90
7934;DHT22;4012;48.896;9.192;2022-09-03T03:03:01;17.90;99.90
7934;DHT22;4012;48.896;9.192;2022-09-03T03:05:52;17.80;99.90
7934;DHT22;4012;48.896;9.192;2022-09-03T03:08:21;17.90;99.90
7934;DHT22;4012;48.896;9.192;2022-09-03T03:10:51;17.90;99.90
7934;DHT22;4012;48.896;9.192;2022-09-03T03:13:17;17.80;99.90
7934;DHT22;4012;48.896;9.192;2022-09-03T03:15:43;17.80;99.90
7934;DHT22;4012;48.896;9.192;2022-09-03T03:18:10;17.80;99.90
7934;DHT22;4012;48.896;9.192;2022-09-03T03:20:39;17.90;99.90
7934;DHT22;4012;48.896;9.192;2022-09-03T03:23:05;17.90;99.90
7934;DHT22;4012;48.896;9.192;2022-09-03T03:25:35;17.90;99.90
7934;DHT22;4012;48.896;9.192;2022-09-03T03:28:02;17.90;99.90
7934;DHT22;4012;48.896;9.192;2022-09-03T03:30:28;17.90;99.90
7934;DHT22;4012;48.896;9.192;2022-09-03T03:32:54;17.90;99.90
7934;DHT22;4012;48.896;9.192;2022-09-03T03:35:21;17.80;99.90
7934;DHT22;4012;48.896;9.192;2022-09-03T03:37:46;17.80;99.90
7934;DHT22;4012;48.896;9.192;2022-09-03T03:40:13;17.80;99.90
7934;DHT22;4012;48.896;9.192;2022-09-03T03:42:40;17.80;99.90
7934;DHT22;4012;48.896;9.192;2022-09-03T03:45:07;17.80;99.90
7934;DHT22;4012;48.896;9.192;2022-09-03T03:47:34;17.70;99.90
7934;DHT22;4012;48.896;9.192;2022-09-03T03:50:00;17.70;99.90
7934;DHT22;4012;48.896;9.192;2022-09-03T03:52:26;17.70;99.90
7934;DHT22;4012;48.896;9.192;2022-09-03T03:54:52;17.80;99.90
7934;DHT22;4012;48.896;9.192;2022-09-03T03:57:18;17.70;99.90
7934;DHT22;4012;48.896;9.192;2022-09-03T03:59:45;17.80;99.90
7934;DHT22;4012;48.896;9.192;2022-09-03T04:02:11;17.70;99.90
7934;DHT22;4012;48.896;9.192;2022-09-03T04:04:37;17.70;99.90
7934;DHT22;4012;48.896;9.192;2022-09-03T04:07:03;17.60;99.90
7934;DHT22;4012;48.896;9.192;2022-09-03T04:09:28;17.70;99.90
7934;DHT22;4012;48.896;9.192;2022-09-03T04:11:54;17.60;99.90
7934;DHT22;4012;48.896;9.192;2022-09-03T04:14:22;17.70;99.90
7934;DHT22;4012;48.896;9.192;2022-09-03T04:16:48;17.70;99.90
7934;DHT22;4012;48.896;9.192;2022-09-03T04:19:15;17.70;99.90
7934;DHT22;4012;48.896;9.192;2022-09-03T04:21:42;17.70;99.90
7934;DHT22;4012;48.896;9.192;2022-09-03T04:24:07;17.70;99.90
7934;DHT22;4012;48.896;9.192;2022-09-03T04:26:34;17.60;99.90
7934;DHT22;4012;48.896;9.192;2022-09-03T04:29:04;17.60;99.90
7934;DHT22;4012;48.896;9.192;2022-09-03T04:31:30;17.50;99.90
7934;DHT22;4012;48.896;9.192;2022-09-03T04:33:56;17.60;99.90
7934;DHT22;4012;48.896;9.192;2022-09-03T04:36:24;17.60;99.90
7934;DHT22;4012;48.896;9.192;2022-09-03T04:38:52;17.60;99.90
7934;DHT22;4012;48.896;9.192;2022-09-03T04:41:23;17.60;99.90
7934;DHT22;4012;48.896;9.192;2022-09-03T04:43:53;17.60;99.90
7934;DHT22;4012;48.896;9.192;2022-09-03T04:46:20;17.70;99.90
7934;DHT22;4012;48.896;9.192;2022-09-03T04:48:48;17.70;99.90
7934;DHT22;4012;48.896;9.192;2022-09-03T04:51:22;17.70;99.90
7934;DHT22;4012;48.896;9.192;2022-09-03T04:53:56;17.60;99.90
7934;DHT22;4012;48.896;9.192;2022-09-03T04:56:25;17.60;99.90
7934;DHT22;4012;48.896;9.192;2022-09-03T04:59:08;17.60;99.90
7934;DHT22;4012;48.896;9.192;2022-09-03T05:01:36;17.60;99.90
7934;DHT22;4012;48.896;9.192;2022-09-03T05:04:03;17.60;99.90
7934;DHT22;4012;48.896;9.192;2022-09-03T05:06:29;17.60;99.90
7934;DHT22;4012;48.896;9.192;2022-09-03T05:08:56;17.60;99.90
7934;DHT22;4012;48.896;9.192;2022-09-03T05:11:23;17.60;99.90
7934;DHT22;4012;48.896;9.192;2022-09-03T05:13:51;17.70;99.90
7934;DHT22;4012;48.896;9.192;2022-09-03T05:16:18;17.70;99.90
7934;DHT22;4012;48.896;9.192;2022-09-03T05:18:45;17.80;99.90
7934;DHT22;4012;48.896;9.192;2022-09-03T05:21:15;17.80;99.90
7934;DHT22;4012;48.896;9.192;2022-09-03T05:23:43;17.70;99.90
7934;DHT22;4012;48.896;9.192;2022-09-03T05:26:15;17.60;99.90
7934;DHT22;4012;48.896;9.192;2022-09-03T05:28:41;17.70;99.90
7934;DHT22;4012;48.896;9.192;2022-09-03T05:31:15;17.70;99.90
7934;DHT22;4012;48.896;9.192;2022-09-03T05:33:43;17.80;99.90
7934;DHT22;4012;48.896;9.192;2022-09-03T05:36:15;17.70;99.90
7934;DHT22;4012;48.896;9.192;2022-09-03T05:38:41;17.80;99.90
7934;DHT22;4012;48.896;9.192;2022-09-03T05:41:09;17.80;99.90
7934;DHT22;4012;48.896;9.192;2022-09-03T05:43:35;17.90;99.90
7934;DHT22;4012;48.896;9.192;2022-09-03T05:48:32;18.00;99.90
7934;DHT22;4012;48.896;9.192;2022-09-03T05:51:04;18.10;99.90
7934;DHT22;4012;48.896;9.192;2022-09-03T05:53:31;18.20;99.90
7934;DHT22;4012;48.896;9.192;2022-09-03T05:55:59;18.20;99.90
7934;DHT22;4012;48.896;9.192;2022-09-03T05:58:29;18.20;99.90
7934;DHT22;4012;48.896;9.192;2022-09-03T06:00:55;18.30;99.90
7934;DHT22;4012;48.896;9.192;2022-09-03T06:03:20;18.30;99.90
7934;DHT22;4012;48.896;9.192;2022-09-03T06:05:53;18.20;99.90
7934;DHT22;4012;48.896;9.192;2022-09-03T06:08:19;17.80;99.90
7934;DHT22;4012;48.896;9.192;2022-09-03T06:10:45;18.00;99.90
7934;DHT22;4012;48.896;9.192;2022-09-03T06:13:11;18.10;99.90
7934;DHT22;4012;48.896;9.192;2022-09-03T06:15:37;18.30;99.90
7934;DHT22;4012;48.896;9.192;2022-09-03T06:18:03;18.30;99.90
7934;DHT22;4012;48.896;9.192;2022-09-03T06:20:29;18.40;99.90
7934;DHT22;4012;48.896;9.192;2022-09-03T06:22:55;18.20;99.90
7934;DHT22;4012;48.896;9.192;2022-09-03T06:25:21;18.20;99.90
7934;DHT22;4012;48.896;9.192;2022-09-03T06:27:46;18.30;99.90
7934;DHT22;4012;48.896;9.192;2022-09-03T06:30:13;18.40;99.90
7934;DHT22;4012;48.896;9.192;2022-09-03T06:32:44;18.50;99.90
7934;DHT22;4012;48.896;9.192;2022-09-03T06:35:10;18.40;99.90
7934;DHT22;4012;48.896;9.192;2022-09-03T06:37:39;18.50;99.90
7934;DHT22;4012;48.896;9.192;2022-09-03T06:40:05;18.30;99.90
7934;DHT22;4012;48.896;9.192;2022-09-03T06:42:38;18.40;99.90
7934;DHT22;4012;48.896;9.192;2022-09-03T06:45:05;18.20;99.90
7934;DHT22;4012;48.896;9.192;2022-09-03T06:47:31;18.30;99.90
7934;DHT22;4012;48.896;9.192;2022-09-03T06:49:58;18.20;99.90
7934;DHT22;4012;48.896;9.192;2022-09-03T06:52:25;18.30;99.90
7934;DHT22;4012;48.896;9.192;2022-09-03T06:54:50;18.50;99.90
7934;DHT22;4012;48.896;9.192;2022-09-03T06:57:16;18.60;99.90
7934;DHT22;4012;48.896;9.192;2022-09-03T06:59:41;18.50;99.90
7934;DHT22;4012;48.896;9.192;2022-09-03T07:02:08;18.60;99.90
7934;DHT22;4012;48.896;9.192;2022-09-03T07:04:34;18.50;99.90
7934;DHT22;4012;48.896;9.192;2022-09-03T07:07:00;18.60;99.90
7934;DHT22;4012;48.896;9.192;2022-09-03T07:09:26;18.90;99.90
7934;DHT22;4012;48.896;9.192;2022-09-03T07:11:52;19.10;99.90
7934;DHT22;4012;48.896;9.192;2022-09-03T07:14:19;19.20;99.90
7934;DHT22;4012;48.896;9.192;2022-09-03T07:16:45;19.50;99.90
7934;DHT22;4012;48.896;9.192;2022-09-03T07:19:12;19.60;99.90
7934;DHT22;4012;48.896;9.192;2022-09-03T07:21:38;19.80;99.90
7934;DHT22;4012;48.896;9.192;2022-09-03T07:24:07;19.70;99.90
7934;DHT22;4012;48.896;9.192;2022-09-03T07:26:36;20.00;99.90
7934;DHT22;4012;48.896;9.192;2022-09-03T07:29:03;19.80;99.90
7934;DHT22;4012;48.896;9.192;2022-09-03T07:31:37;20.30;99.90
7934;DHT22;4012;48.896;9.192;2022-09-03T07:34:05;20.60;99.90
7934;DHT22;4012;48.896;9.192;2022-09-03T07:36:37;20.60;99.90
7934;DHT22;4012;48.896;9.192;2022-09-03T07:39:03;20.50;99.90
7934;DHT22;4012;48.896;9.192;2022-09-03T07:41:29;20.40;99.90
7934;DHT22;4012;48.896;9.192;2022-09-03T07:43:58;20.20;99.90
7934;DHT22;4012;48.896;9.192;2022-09-03T07:46:25;19.80;99.90
7934;DHT22;4012;48.896;9.192;2022-09-03T07:48:54;19.40;99.90
7934;DHT22;4012;48.896;9.192;2022-09-03T07:51:23;19.70;99.90
7934;DHT22;4012;48.896;9.192;2022-09-03T07:53:52;20.10;99.90
7934;DHT22;4012;48.896;9.192;2022-09-03T07:56:18;20.40;99.90
7934;DHT22;4012;48.896;9.192;2022-09-03T07:58:44;20.50;99.90
7934;DHT22;4012;48.896;9.192;2022-09-03T08:01:14;20.60;99.90
7934;DHT22;4012;48.896;9.192;2022-09-03T08:03:45;20.80;99.90
7934;DHT22;4012;48.896;9.192;2022-09-03T08:06:11;21.10;99.90
7934;DHT22;4012;48.896;9.192;2022-09-03T08:08:38;21.10;99.90
7934;DHT22;4012;48.896;9.192;2022-09-03T08:11:08;21.30;99.90
7934;DHT22;4012;48.896;9.192;2022-09-03T08:13:43;21.40;99.90
7934;DHT22;4012;48.896;9.192;2022-09-03T08:16:13;21.60;99.90
7934;DHT22;4012;48.896;9.192;2022-09-03T08:18:39;22.60;99.90
7934;DHT22;4012;48.896;9.192;2022-09-03T08:21:10;22.80;99.90
7934;DHT22;4012;48.896;9.192;2022-09-03T08:23:40;22.60;99.90
7934;DHT22;4012;48.896;9.192;2022-09-03T08:26:06;22.10;99.90
7934;DHT22;4012;48.896;9.192;2022-09-03T08:28:33;21.70;99.90
7934;DHT22;4012;48.896;9.192;2022-09-03T08:31:20;21.50;99.90
7934;DHT22;4012;48.896;9.192;2022-09-03T08:33:48;21.80;99.90
7934;DHT22;4012;48.896;9.192;2022-09-03T08:36:28;23.00;99.90
7934;DHT22;4012;48.896;9.192;2022-09-03T08:38:55;25.30;99.90
7934;DHT22;4012;48.896;9.192;2022-09-03T08:41:44;24.90;99.90
7934;DHT22;4012;48.896;9.192;2022-09-03T08:44:45;24.70;99.90
7934;DHT22;4012;48.896;9.192;2022-09-03T08:47:15;22.60;99.90
7934;DHT22;4012;48.896;9.192;2022-09-03T08:49:53;22.10;99.90
7934;DHT22;4012;48.896;9.192;2022-09-03T08:54:53;21.70;99.90
7934;DHT22;4012;48.896;9.192;2022-09-03T08:57:20;21.70;99.90
7934;DHT22;4012;48.896;9.192;2022-09-03T08:59:52;21.70;99.90
7934;DHT22;4012;48.896;9.192;2022-09-03T09:07:33;21.40;99.90
7934;DHT22;4012;48.896;9.192;2022-09-03T09:12:44;21.20;99.90
7934;DHT22;4012;48.896;9.192;2022-09-03T09:20:47;22.50;99.90
7934;DHT22;4012;48.896;9.192;2022-09-03T09:23:31;22.30;99.90
7934;DHT22;4012;48.896;9.192;2022-09-03T09:26:00;22.20;99.90
7934;DHT22;4012;48.896;9.192;2022-09-03T09:28:34;22.40;99.90
7934;DHT22;4012;48.896;9.192;2022-09-03T09:31:02;22.40;99.90
7934;DHT22;4012;48.896;9.192;2022-09-03T09:33:30;22.70;99.90
7934;DHT22;4012;48.896;9.192;2022-09-03T09:36:02;23.20;99.90
7934;DHT22;4012;48.896;9.192;2022-09-03T09:38:34;23.70;99.90
7934;DHT22;4012;48.896;9.192;2022-09-03T09:41:17;23.50;99.90
7934;DHT22;4012;48.896;9.192;2022-09-03T09:43:44;23.70;99.90
7934;DHT22;4012;48.896;9.192;2022-09-03T09:46:24;23.80;99.90
7934;DHT22;4012;48.896;9.192;2022-09-03T09:48:55;24.10;99.90
7934;DHT22;4012;48.896;9.192;2022-09-03T09:51:29;24.60;99.90
7934;DHT22;4012;48.896;9.192;2022-09-03T09:54:15;24.90;99.90
7934;DHT22;4012;48.896;9.192;2022-09-03T09:56:56;25.30;99.90
7934;DHT22;4012;48.896;9.192;2022-09-03T09:59:22;24.60;99.90
7934;DHT22;4012;48.896;9.192;2022-09-03T10:01:48;24.20;99.90
7934;DHT22;4012;48.896;9.192;2022-09-03T10:06:45;23.70;99.90
7934;DHT22;4012;48.896;9.192;2022-09-03T10:09:26;23.10;99.90
7934;DHT22;4012;48.896;9.192;2022-09-03T10:14:43;23.40;99.90
7934;DHT22;4012;48.896;9.192;2022-09-03T10:17:18;23.70;99.90
7934;DHT22;4012;48.896;9.192;2022-09-03T10:22:18;23.40;99.90
7934;DHT22;4012;48.896;9.192;2022-09-03T10:24:55;24.00;99.90
7934;DHT22;4012;48.896;9.192;2022-09-03T10:27:22;25.80;99.90
7934;DHT22;4012;48.896;9.192;2022-09-03T10:29:48;26.50;99.90
7934;DHT22;4012;48.896;9.192;2022-09-03T10:32:30;25.90;99.90
7934;DHT22;4012;48.896;9.192;2022-09-03T10:38:44;27.70;99.90
7934;DHT22;4012;48.896;9.192;2022-09-03T10:46:18;25.40;99.90
7934;DHT22;4012;48.896;9.192;2022-09-03T10:55:19;26.80;99.90
7934;DHT22;4012;48.896;9.192;2022-09-03T10:57:57;25.90;99.90
7934;DHT22;4012;48.896;9.192;2022-09-03T11:00:29;25.10;99.90
7934;DHT22;4012;48.896;9.192;2022-09-03T11:06:12;26.10;99.90
7934;DHT22;4012;48.896;9.192;2022-09-03T11:08:47;26.50;99.90
7934;DHT22;4012;48.896;9.192;2022-09-03T11:11:19;26.10;99.90
7934;DHT22;4012;48.896;9.192;2022-09-03T11:14:12;25.70;99.90
7934;DHT22;4012;48.896;9.192;2022-09-03T11:16:45;25.50;99.90
7934;DHT22;4012;48.896;9.192;2022-09-03T11:19:16;24.90;99.90
7934;DHT22;4012;48.896;9.192;2022-09-03T11:21:42;25.50;99.90
7934;DHT22;4012;48.896;9.192;2022-09-03T11:24:23;25.60;99.90
7934;DHT22;4012;48.896;9.192;2022-09-03T11:28:07;25.80;99.90
7934;DHT22;4012;48.896;9.192;2022-09-03T11:30:09;25.50;99.90
7934;DHT22;4012;48.896;9.192;2022-09-03T11:32:55;25.60;99.90
7934;DHT22;4012;48.896;9.192;2022-09-03T11:40:35;25.70;99.90
7934;DHT22;4012;48.896;9.192;2022-09-03T11:43:29;25.20;99.90
7934;DHT22;4012;48.896;9.192;2022-09-03T11:46:12;25.40;99.90
7934;DHT22;4012;48.896;9.192;2022-09-03T11:48:44;24.80;99.90
7934;DHT22;4012;48.896;9.192;2022-09-03T11:51:30;25.20;99.90
7934;DHT22;4012;48.896;9.192;2022-09-03T11:56:39;25.00;99.90
7934;DHT22;4012;48.896;9.192;2022-09-03T12:01:42;25.10;99.90
7934;DHT22;4012;48.896;9.192;2022-09-03T12:04:13;24.80;99.90
7934;DHT22;4012;48.896;9.192;2022-09-03T12:09:34;24.30;99.90
7934;DHT22;4012;48.896;9.192;2022-09-03T12:20:14;23.70;99.90
7934;DHT22;4012;48.896;9.192;2022-09-03T12:22:40;23.70;99.90
7934;DHT22;4012;48.896;9.192;2022-09-03T12:25:11;23.70;99.90
7934;DHT22;4012;48.896;9.192;2022-09-03T12:27:39;23.60;99.90
7934;DHT22;4012;48.896;9.192;2022-09-03T12:30:15;23.50;99.90
7934;DHT22;4012;48.896;9.192;2022-09-03T12:32:41;23.40;99.90
7934;DHT22;4012;48.896;9.192;2022-09-03T12:35:16;23.20;99.90
7934;DHT22;4012;48.896;9.192;2022-09-03T12:37:43;23.10;99.90
7934;DHT22;4012;48.896;9.192;2022-09-03T12:40:26;23.10;99.90
7934;DHT22;4012;48.896;9.192;2022-09-03T12:42:52;23.10;99.90
7934;DHT22;4012;48.896;9.192;2022-09-03T12:45:21;22.90;99.90
7934;DHT22;4012;48.896;9.192;2022-09-03T12:47:48;22.80;99.90
7934;DHT22;4012;48.896;9.192;2022-09-03T12:50:19;22.80;99.90
7934;DHT22;4012;48.896;9.192;2022-09-03T12:55:24;22.80;99.90
7934;DHT22;4012;48.896;9.192;2022-09-03T12:58:22;22.80;99.90
7934;DHT22;4012;48.896;9.192;2022-09-03T13:00:56;22.70;99.90
7934;DHT22;4012;48.896;9.192;2022-09-03T13:03:29;22.70;99.90
7934;DHT22;4012;48.896;9.192;2022-09-03T13:06:07;22.30;99.90
7934;DHT22;4012;48.896;9.192;2022-09-03T13:08:43;21.90;99.90
7934;DHT22;4012;48.896;9.192;2022-09-03T13:11:15;21.50;99.90
7934;DHT22;4012;48.896;9.192;2022-09-03T13:13:53;21.20;99.90
7934;DHT22;4012;48.896;9.192;2022-09-03T13:16:30;21.10;99.90
7934;DHT22;4012;48.896;9.192;2022-09-03T13:22:07;21.00;99.90
7934;DHT22;4012;48.896;9.192;2022-09-03T13:27:53;20.70;99.90
7934;DHT22;4012;48.896;9.192;2022-09-03T13:30:22;20.70;99.90
7934;DHT22;4012;48.896;9.192;2022-09-03T13:33:20;20.90;99.90
7934;DHT22;4012;48.896;9.192;2022-09-03T13:35:59;21.00;99.90
7934;DHT22;4012;48.896;9.192;2022-09-03T13:38:38;21.30;99.90
7934;DHT22;4012;48.896;9.192;2022-09-03T13:41:13;21.40;99.90
7934;DHT22;4012;48.896;9.192;2022-09-03T13:49:29;22.00;99.90
7934;DHT22;4012;48.896;9.192;2022-09-03T13:52:26;22.00;99.90
7934;DHT22;4012;48.896;9.192;2022-09-03T14:06:38;22.10;99.90
7934;DHT22;4012;48.896;9.192;2022-09-03T14:12:14;21.80;99.90
7934;DHT22;4012;48.896;9.192;2022-09-03T14:20:53;21.60;99.90
7934;DHT22;4012;48.896;9.192;2022-09-03T14:26:21;21.20;99.90
7934;DHT22;4012;48.896;9.192;2022-09-03T14:37:29;20.40;99.90
7934;DHT22;4012;48.896;9.192;2022-09-03T14:40:15;20.20;99.90
7934;DHT22;4012;48.896;9.192;2022-09-03T14:43:13;20.20;99.90
7934;DHT22;4012;48.896;9.192;2022-09-03T14:49:07;20.20;99.90
7934;DHT22;4012;48.896;9.192;2022-09-03T14:57:13;20.20;99.90
7934;DHT22;4012;48.896;9.192;2022-09-03T15:00:27;20.20;99.90
7934;DHT22;4012;48.896;9.192;2022-09-03T15:05:43;20.30;99.90
7934;DHT22;4012;48.896;9.192;2022-09-03T15:11:00;20.20;99.90
7934;DHT22;4012;48.896;9.192;2022-09-03T15:13:41;20.10;99.90
7934;DHT22;4012;48.896;9.192;2022-09-03T15:26:55;20.10;99.90
7934;DHT22;4012;48.896;9.192;2022-09-03T15:38:02;21.00;99.90
7934;DHT22;4012;48.896;9.192;2022-09-03T15:40:40;21.10;99.90
7934;DHT22;4012;48.896;9.192;2022-09-03T15:43:21;21.50;99.90
7934;DHT22;4012;48.896;9.192;2022-09-03T15:46:02;21.10;99.90
7934;DHT22;4012;48.896;9.192;2022-09-03T15:48:51;20.70;99.90
7934;DHT22;4012;48.896;9.192;2022-09-03T15:51:31;20.50;99.90
7934;DHT22;4012;48.896;9.192;2022-09-03T15:54:41;20.90;99.90
7934;DHT22;4012;48.896;9.192;2022-09-03T16:00:17;20.90;99.90
7934;DHT22;4012;48.896;9.192;2022-09-03T16:03:09;20.90;99.90
7934;DHT22;4012;48.896;9.192;2022-09-03T16:06:02;20.80;99.90
7934;DHT22;4012;48.896;9.192;2022-09-03T16:08:49;20.70;99.90
7934;DHT22;4012;48.896;9.192;2022-09-03T16:14:57;20.80;99.90
7934;DHT22;4012;48.896;9.192;2022-09-03T16:23:09;20.80;99.90
7934;DHT22;4012;48.896;9.192;2022-09-03T16:28:27;20.60;99.90
7934;DHT22;4012;48.896;9.192;2022-09-03T16:38:42;20.40;99.90
7934;DHT22;4012;48.896;9.192;2022-09-03T16:41:34;20.40;99.90
7934;DHT22;4012;48.896;9.192;2022-09-03T16:44:10;20.40;99.90
7934;DHT22;4012;48.896;9.192;2022-09-03T16:49:37;20.40;99.90
7934;DHT22;4012;48.896;9.192;2022-09-03T16:53:15;20.40;99.90
7934;DHT22;4012;48.896;9.192;2022-09-03T16:58:17;20.60;99.90
7934;DHT22;4012;48.896;9.192;2022-09-03T17:06:30;20.50;99.90
7934;DHT22;4012;48.896;9.192;2022-09-03T17:11:58;20.40;99.90
7934;DHT22;4012;48.896;9.192;2022-09-03T17:14:54;20.50;99.90
7934;DHT22;4012;48.896;9.192;2022-09-03T17:26:46;20.30;99.90
7934;DHT22;4012;48.896;9.192;2022-09-03T17:45:55;20.00;99.90
7934;DHT22;4012;48.896;9.192;2022-09-03T17:48:51;20.10;99.90
7934;DHT22;4012;48.896;9.192;2022-09-03T17:54:03;20.00;99.90
7934;DHT22;4012;48.896;9.192;2022-09-03T17:56:41;20.00;99.90
7934;DHT22;4012;48.896;9.192;2022-09-03T18:04:53;20.00;99.90
7934;DHT22;4012;48.896;9.192;2022-09-03T18:12:55;19.90;99.90
7934;DHT22;4012;48.896;9.192;2022-09-03T18:15:45;19.90;99.90
7934;DHT22;4012;48.896;9.192;2022-09-03T18:18:32;19.80;99.90
7934;DHT22;4012;48.896;9.192;2022-09-03T18:21:02;19.80;99.90
7934;DHT22;4012;48.896;9.192;2022-09-03T18:24:25;19.80;99.90
7934;DHT22;4012;48.896;9.192;2022-09-03T18:27:20;19.80;99.90
7934;DHT22;4012;48.896;9.192;2022-09-03T18:30:08;19.80;99.90
7934;DHT22;4012;48.896;9.192;2022-09-03T18:32:52;19.80;99.90
7934;DHT22;4012;48.896;9.192;2022-09-03T18:35:37;19.80;99.90
7934;DHT22;4012;48.896;9.192;2022-09-03T18:38:36;19.80;99.90
7934;DHT22;4012;48.896;9.192;2022-09-03T18:50:54;19.70;99.90
7934;DHT22;4012;48.896;9.192;2022-09-03T18:56:49;19.70;99.90
7934;DHT22;4012;48.896;9.192;2022-09-03T19:09:04;19.60;99.90
7934;DHT22;4012;48.896;9.192;2022-09-03T19:15:26;19.50;99.90
7934;DHT22;4012;48.896;9.192;2022-09-03T19:24:29;19.50;99.90
7934;DHT22;4012;48.896;9.192;2022-09-03T19:30:23;19.40;99.90
7934;DHT22;4012;48.896;9.192;2022-09-03T19:36:36;19.20;99.90
7934;DHT22;4012;48.896;9.192;2022-09-03T19:39:30;19.20;99.90
7934;DHT22;4012;48.896;9.192;2022-09-03T19:55:11;19.20;99.90
7934;DHT22;4012;48.896;9.192;2022-09-03T19:58:00;19.20;99.90
7934;DHT22;4012;48.896;9.192;2022-09-03T20:00:45;19.30;99.90
7934;DHT22;4012;48.896;9.192;2022-09-03T20:03:30;19.30;99.90
7934;DHT22;4012;48.896;9.192;2022-09-03T20:06:15;19.30;99.90
7934;DHT22;4012;48.896;9.192;2022-09-03T20:09:07;19.20;99.90
7934;DHT22;4012;48.896;9.192;2022-09-03T20:11:54;19.10;99.90
7934;DHT22;4012;48.896;9.192;2022-09-03T20:14:21;19.00;99.90
7934;DHT22;4012;48.896;9.192;2022-09-03T20:17:14;18.90;99.90
7934;DHT22;4012;48.896;9.192;2022-09-03T20:20:14;18.90;99.90
7934;DHT22;4012;48.896;9.192;2022-09-03T20:22:55;18.90;99.90
7934;DHT22;4012;48.896;9.192;2022-09-03T20:31:25;18.90;99.90
7934;DHT22;4012;48.896;9.192;2022-09-03T20:39:32;19.00;99.90
7934;DHT22;4012;48.896;9.192;2022-09-03T20:45:03;19.10;99.90
7934;DHT22;4012;48.896;9.192;2022-09-03T20:47:52;19.10;99.90
7934;DHT22;4012;48.896;9.192;2022-09-03T20:56:02;18.90;99.90
7934;DHT22;4012;48.896;9.192;2022-09-03T20:58:53;18.90;99.90
7934;DHT22;4012;48.896;9.192;2022-09-03T21:01:50;18.90;99.90
7934;DHT22;4012;48.896;9.192;2022-09-03T21:07:54;18.90;99.90
7934;DHT22;4012;48.896;9.192;2022-09-03T21:10:27;18.90;99.90
7934;DHT22;4012;48.896;9.192;2022-09-03T21:18:33;18.70;99.90
7934;DHT22;4012;48.896;9.192;2022-09-03T21:23:42;18.70;99.90
7934;DHT22;4012;48.896;9.192;2022-09-03T21:26:28;18.70;99.90
7934;DHT22;4012;48.896;9.192;2022-09-03T21:34:30;18.50;99.90
7934;DHT22;4012;48.896;9.192;2022-09-03T21:36:58;18.50;99.90
7934;DHT22;4012;48.896;9.192;2022-09-03T21:39:32;18.40;99.90
7934;DHT22;4012;48.896;9.192;2022-09-03T21:42:08;18.30;99.90
7934;DHT22;4012;48.896;9.192;2022-09-03T21:44:58;18.30;99.90
7934;DHT22;4012;48.896;9.192;2022-09-03T21:47:27;18.20;99.90
7934;DHT22;4012;48.896;9.192;2022-09-03T21:55:21;18.20;99.90
7934;DHT22;4012;48.896;9.192;2022-09-03T21:58:13;18.20;99.90
7934;DHT22;4012;48.896;9.192;2022-09-03T22:00:42;18.30;99.90
7934;DHT22;4012;48.896;9.192;2022-09-03T22:03:09;18.30;99.90
7934;DHT22;4012;48.896;9.192;2022-09-03T22:05:54;18.30;99.90
7934;DHT22;4012;48.896;9.192;2022-09-03T22:08:57;18.30;99.90
7934;DHT22;4012;48.896;9.192;2022-09-03T22:11:31;18.40;99.90
7934;DHT22;4012;48.896;9.192;2022-09-03T22:14:15;18.40;99.90
7934;DHT22;4012;48.896;9.192;2022-09-03T22:17:01;18.40;99.90
7934;DHT22;4012;48.896;9.192;2022-09-03T22:19:30;18.40;99.90
7934;DHT22;4012;48.896;9.192;2022-09-03T22:22:02;18.40;99.90
7934;DHT22;4012;48.896;9.192;2022-09-03T22:27:40;18.50;99.90
7934;DHT22;4012;48.896;9.192;2022-09-03T22:30:11;18.50;99.90
7934;DHT22;4012;48.896;9.192;2022-09-03T22:33:20;18.40;99.90
7934;DHT22;4012;48.896;9.192;2022-09-03T22:39:03;18.30;99.90
7934;DHT22;4012;48.896;9.192;2022-09-03T22:52:23;18.20;99.90
7934;DHT22;4012;48.896;9.192;2022-09-03T22:57:43;18.20;99.90
7934;DHT22;4012;48.896;9.192;2022-09-03T23:00:10;18.20;99.90
7934;DHT22;4012;48.896;9.192;2022-09-03T23:02:37;18.20;99.90
7934;DHT22;4012;48.896;9.192;2022-09-03T23:05:32;18.20;99.90
7934;DHT22;4012;48.896;9.192;2022-09-03T23:08:20;18.20;99.90
7934;DHT22;4012;48.896;9.192;2022-09-03T23:11:00;18.20;99.90
7934;DHT22;4012;48.896;9.192;2022-09-03T23:13:37;18.20;99.90
7934;DHT22;4012;48.896;9.192;2022-09-03T23:18:43;18.10;99.90
7934;DHT22;4012;48.896;9.192;2022-09-03T23:21:29;18.10;99.90
7934;DHT22;4012;48.896;9.192;2022-09-03T23:24:09;18.00;99.90
7934;DHT22;4012;48.896;9.192;2022-09-03T23:26:45;17.90;99.90